sensor_id;sensor_type;location;lat;lon;timestamp;temperature;humidity
12276;DHT22;6200;48.144;11.424;2023-09-30T00:01:18;17.20;99.90
12276;DHT22;6200;48.144;11.424;2023-09-30T00:03:44;17.30;99.90
12276;DHT22;6200;48.144;11.424;2023-09-30T00:06:10;17.10;99.90
12276;DHT22;6200;48.144;11.424;2023-09-30T00:08:35;17.10;99.90
12276;DHT22;6200;48.144;11.424;2023-09-30T00:11:01;17.00;99.90
12276;DHT22;6200;48.144;11.424;2023-09-30T00:13:27;17.00;99.90
12276;DHT22;6200;48.144;11.424;2023-09-30T00:15:53;16.90;99.90
12276;DHT22;6200;48.144;11.424;2023-09-30T00:18:19;16.90;99.90
12276;DHT22;6200;48.144;11.424;2023-09-30T00:20:45;16.80;99.90
12276;DHT22;6200;48.144;11.424;2023-09-30T00:23:10;16.80;99.90
12276;DHT22;6200;48.144;11.424;2023-09-30T00:25:36;16.80;99.90
12276;DHT22;6200;48.144;11.424;2023-09-30T00:28:01;16.80;99.90
12276;DHT22;6200;48.144;11.424;2023-09-30T00:30:27;16.70;99.90
12276;DHT22;6200;48.144;11.424;2023-09-30T00:32:52;16.70;99.90
12276;DHT22;6200;48.144;11.424;2023-09-30T00:35:18;16.60;99.90
12276;DHT22;6200;48.144;11.424;2023-09-30T00:37:43;16.60;99.90
12276;DHT22;6200;48.144;11.424;2023-09-30T00:40:10;16.60;99.90
12276;DHT22;6200;48.144;11.424;2023-09-30T00:42:39;16.60;99.90
12276;DHT22;6200;48.144;11.424;2023-09-30T00:45:05;16.60;99.90
12276;DHT22;6200;48.144;11.424;2023-09-30T00:47:31;16.50;99.90
12276;DHT22;6200;48.144;11.424;2023-09-30T00:49:57;16.50;99.90
12276;DHT22;6200;48.144;11.424;2023-09-30T00:52:23;16.50;99.90
12276;DHT22;6200;48.144;11.424;2023-09-30T00:54:49;16.50;99.90
12276;DHT22;6200;48.144;11.424;2023-09-30T00:57:16;16.50;99.90
12276;DHT22;6200;48.144;11.424;2023-09-30T00:59:44;16.40;99.90
12276;DHT22;6200;48.144;11.424;2023-09-30T01:02:09;16.40;99.90
12276;DHT22;6200;48.144;11.424;2023-09-30T01:04:35;16.30;99.90
12276;DHT22;6200;48.144;11.424;2023-09-30T01:07:02;16.30;99.90
12276;DHT22;6200;48.144;11.424;2023-09-30T01:09:27;16.30;99.90
12276;DHT22;6200;48.144;11.424;2023-09-30T01:11:53;16.30;99.90
12276;DHT22;6200;48.144;11.424;2023-09-30T01:14:29;16.40;99.90
12276;DHT22;6200;48.144;11.424;2023-09-30T01:16:55;16.30;99.90
12276;DHT22;6200;48.144;11.424;2023-09-30T01:19:21;16.40;99.90
12276;DHT22;6200;48.144;11.424;2023-09-30T01:21:49;16.40;99.90
12276;DHT22;6200;48.144;11.424;2023-09-30T01:24:15;16.40;99.90
12276;DHT22;6200;48.144;11.424;2023-09-30T01:26:41;16.40;99.90
12276;DHT22;6200;48.144;11.424;2023-09-30T01:29:09;16.40;99.90
12276;DHT22;6200;48.144;11.424;2023-09-30T01:31:38;16.40;99.90
12276;DHT22;6200;48.144;11.424;2023-09-30T01:34:04;16.30;99.90
12276;DHT22;6200;48.144;11.424;2023-09-30T01:36:30;16.30;99.90
12276;DHT22;6200;48.144;11.424;2023-09-30T01:38:55;16.30;99.90
12276;DHT22;6200;48.144;11.424;2023-09-30T01:41:22;16.30;99.90
12276;DHT22;6200;48.144;11.424;2023-09-30T01:43:47;16.20;99.90
12276;DHT22;6200;48.144;11.424;2023-09-30T01:46:13;16.20;99.90
12276;DHT22;6200;48.144;11.424;2023-09-30T01:48:39;16.10;99.90
12276;DHT22;6200;48.144;11.424;2023-09-30T01:51:04;16.10;99.90
12276;DHT22;6200;48.144;11.424;2023-09-30T01:53:31;16.00;99.90
12276;DHT22;6200;48.144;11.424;2023-09-30T01:55:56;16.00;99.90
12276;DHT22;6200;48.144;11.424;2023-09-30T01:58:22;16.00;99.90
12276;DHT22;6200;48.144;11.424;2023-09-30T02:00:47;16.00;99.90
12276;DHT22;6200;48.144;11.424;2023-09-30T02:03:13;16.00;99.90
12276;DHT22;6200;48.144;11.424;2023-09-30T02:05:39;15.90;99.90
12276;DHT22;6200;48.144;11.424;2023-09-30T02:08:05;15.90;99.90
12276;DHT22;6200;48.144;11.424;2023-09-30T02:10:32;15.90;99.90
12276;DHT22;6200;48.144;11.424;2023-09-30T02:12:58;15.90;99.90
12276;DHT22;6200;48.144;11.424;2023-09-30T02:15:25;16.00;99.90
12276;DHT22;6200;48.144;11.424;2023-09-30T02:17:51;15.90;99.90
12276;DHT22;6200;48.144;11.424;2023-09-30T02:20:17;16.00;99.90
12276;DHT22;6200;48.144;11.424;2023-09-30T02:22:45;16.00;99.90
12276;DHT22;6200;48.144;11.424;2023-09-30T02:25:11;16.00;99.90
12276;DHT22;6200;48.144;11.424;2023-09-30T02:27:41;16.10;99.90
12276;DHT22;6200;48.144;11.424;2023-09-30T02:30:08;16.10;99.90
12276;DHT22;6200;48.144;11.424;2023-09-30T02:32:36;16.10;99.90
12276;DHT22;6200;48.144;11.424;2023-09-30T02:35:02;16.10;99.90
12276;DHT22;6200;48.144;11.424;2023-09-30T02:37:28;16.10;99.90
12276;DHT22;6200;48.144;11.424;2023-09-30T02:39:53;16.20;99.90
12276;DHT22;6200;48.144;11.424;2023-09-30T02:42:19;16.20;99.90
12276;DHT22;6200;48.144;11.424;2023-09-30T02:44:44;16.20;99.90
12276;DHT22;6200;48.144;11.424;2023-09-30T02:47:10;16.20;99.90
12276;DHT22;6200;48.144;11.424;2023-09-30T02:49:36;16.20;99.90
12276;DHT22;6200;48.144;11.424;2023-09-30T02:52:02;16.20;99.90
12276;DHT22;6200;48.144;11.424;2023-09-30T02:54:28;16.20;99.90
12276;DHT22;6200;48.144;11.424;2023-09-30T02:56:54;16.20;99.90
12276;DHT22;6200;48.144;11.424;2023-09-30T02:59:20;16.20;99.90
12276;DHT22;6200;48.144;11.424;2023-09-30T03:01:47;16.20;99.90
12276;DHT22;6200;48.144;11.424;2023-09-30T03:04:13;16.10;99.90
12276;DHT22;6200;48.144;11.424;2023-09-30T03:06:39;16.20;99.90
12276;DHT22;6200;48.144;11.424;2023-09-30T03:09:04;16.20;99.90
12276;DHT22;6200;48.144;11.424;2023-09-30T03:11:31;16.20;99.90
12276;DHT22;6200;48.144;11.424;2023-09-30T03:13:57;16.20;99.90
12276;DHT22;6200;48.144;11.424;2023-09-30T03:16:23;16.20;99.90
12276;DHT22;6200;48.144;11.424;2023-09-30T03:18:50;16.20;99.90
12276;DHT22;6200;48.144;11.424;2023-09-30T03:21:16;16.20;99.90
12276;DHT22;6200;48.144;11.424;2023-09-30T03:23:42;16.10;99.90
12276;DHT22;6200;48.144;11.424;2023-09-30T03:26:08;16.10;99.90
12276;DHT22;6200;48.144;11.424;2023-09-30T03:28:36;16.10;99.90
12276;DHT22;6200;48.144;11.424;2023-09-30T03:31:03;16.10;99.90
12276;DHT22;6200;48.144;11.424;2023-09-30T03:33:30;16.10;99.90
12276;DHT22;6200;48.144;11.424;2023-09-30T03:35:56;16.10;99.90
12276;DHT22;6200;48.144;11.424;2023-09-30T03:38:23;16.10;99.90
12276;DHT22;6200;48.144;11.424;2023-09-30T03:40:49;16.10;99.90
12276;DHT22;6200;48.144;11.424;2023-09-30T03:43:16;16.10;99.90
12276;DHT22;6200;48.144;11.424;2023-09-30T03:45:41;16.10;99.90
12276;DHT22;6200;48.144;11.424;2023-09-30T03:48:07;16.10;99.90
12276;DHT22;6200;48.144;11.424;2023-09-30T03:50:33;16.10;99.90
12276;DHT22;6200;48.144;11.424;2023-09-30T03:53:03;16.20;99.90
12276;DHT22;6200;48.144;11.424;2023-09-30T03:55:30;16.20;99.90
12276;DHT22;6200;48.144;11.424;2023-09-30T03:57:57;16.20;99.90
12276;DHT22;6200;48.144;11.424;2023-09-30T04:00:23;16.20;99.90
12276;DHT22;6200;48.144;11.424;2023-09-30T04:02:49;16.20;99.90
12276;DHT22;6200;48.144;11.424;2023-09-30T04:05:17;16.20;99.90
12276;DHT22;6200;48.144;11.424;2023-09-30T04:07:43;16.20;99.90
12276;DHT22;6200;48.144;11.424;2023-09-30T04:10:09;16.30;99.90
12276;DHT22;6200;48.144;11.424;2023-09-30T04:12:35;16.30;99.90
12276;DHT22;6200;48.144;11.424;2023-09-30T04:15:01;16.20;99.90
12276;DHT22;6200;48.144;11.424;2023-09-30T04:17:26;16.20;99.90
12276;DHT22;6200;48.144;11.424;2023-09-30T04:19:53;16.30;99.90
12276;DHT22;6200;48.144;11.424;2023-09-30T04:22:19;16.20;99.90
12276;DHT22;6200;48.144;11.424;2023-09-30T04:24:46;16.30;99.90
12276;DHT22;6200;48.144;11.424;2023-09-30T04:27:11;16.30;99.90
12276;DHT22;6200;48.144;11.424;2023-09-30T04:29:37;16.20;99.90
12276;DHT22;6200;48.144;11.424;2023-09-30T04:32:03;16.20;99.90
12276;DHT22;6200;48.144;11.424;2023-09-30T04:34:30;16.20;99.90
12276;DHT22;6200;48.144;11.424;2023-09-30T04:36:55;16.30;99.90
12276;DHT22;6200;48.144;11.424;2023-09-30T04:39:21;16.20;99.90
12276;DHT22;6200;48.144;11.424;2023-09-30T04:41:47;16.20;99.90
12276;DHT22;6200;48.144;11.424;2023-09-30T04:44:12;16.20;99.90
12276;DHT22;6200;48.144;11.424;2023-09-30T04:46:38;16.20;99.90
12276;DHT22;6200;48.144;11.424;2023-09-30T04:49:14;16.10;99.90
12276;DHT22;6200;48.144;11.424;2023-09-30T04:51:39;16.10;99.90
12276;DHT22;6200;48.144;11.424;2023-09-30T04:54:05;16.10;99.90
12276;DHT22;6200;48.144;11.424;2023-09-30T04:56:36;16.10;99.90
12276;DHT22;6200;48.144;11.424;2023-09-30T04:59:02;16.00;99.90
12276;DHT22;6200;48.144;11.424;2023-09-30T05:01:29;16.00;99.90
12276;DHT22;6200;48.144;11.424;2023-09-30T05:03:55;15.90;99.90
12276;DHT22;6200;48.144;11.424;2023-09-30T05:06:20;16.30;99.90
12276;DHT22;6200;48.144;11.424;2023-09-30T05:08:46;15.90;99.90
12276;DHT22;6200;48.144;11.424;2023-09-30T05:11:13;15.80;99.90
12276;DHT22;6200;48.144;11.424;2023-09-30T05:13:38;15.80;99.90
12276;DHT22;6200;48.144;11.424;2023-09-30T05:16:04;15.70;99.90
12276;DHT22;6200;48.144;11.424;2023-09-30T05:18:29;15.60;99.90
12276;DHT22;6200;48.144;11.424;2023-09-30T05:20:55;15.60;99.90
12276;DHT22;6200;48.144;11.424;2023-09-30T05:23:21;15.70;99.90
12276;DHT22;6200;48.144;11.424;2023-09-30T05:25:47;15.70;99.90
12276;DHT22;6200;48.144;11.424;2023-09-30T05:28:13;15.70;99.90
12276;DHT22;6200;48.144;11.424;2023-09-30T05:30:39;15.70;99.90
12276;DHT22;6200;48.144;11.424;2023-09-30T05:33:06;15.70;99.90
12276;DHT22;6200;48.144;11.424;2023-09-30T05:35:32;15.70;99.90
12276;DHT22;6200;48.144;11.424;2023-09-30T05:37:58;15.80;99.90
12276;DHT22;6200;48.144;11.424;2023-09-30T05:40:23;15.70;99.90
12276;DHT22;6200;48.144;11.424;2023-09-30T05:42:54;15.70;99.90
12276;DHT22;6200;48.144;11.424;2023-09-30T05:45:23;15.70;99.90
12276;DHT22;6200;48.144;11.424;2023-09-30T05:47:49;15.70;99.90
12276;DHT22;6200;48.144;11.424;2023-09-30T05:50:17;15.80;99.90
12276;DHT22;6200;48.144;11.424;2023-09-30T05:52:43;15.70;99.90
12276;DHT22;6200;48.144;11.424;2023-09-30T05:55:10;15.80;99.90
12276;DHT22;6200;48.144;11.424;2023-09-30T05:57:36;15.80;99.90
12276;DHT22;6200;48.144;11.424;2023-09-30T06:00:02;15.80;99.90
12276;DHT22;6200;48.144;11.424;2023-09-30T06:02:47;15.90;99.90
12276;DHT22;6200;48.144;11.424;2023-09-30T06:05:13;15.90;99.90
12276;DHT22;6200;48.144;11.424;2023-09-30T06:07:41;16.00;99.90
12276;DHT22;6200;48.144;11.424;2023-09-30T06:10:07;16.00;99.90
12276;DHT22;6200;48.144;11.424;2023-09-30T06:12:32;16.10;99.90
12276;DHT22;6200;48.144;11.424;2023-09-30T06:14:58;16.10;99.90
12276;DHT22;6200;48.144;11.424;2023-09-30T06:17:24;16.10;99.90
12276;DHT22;6200;48.144;11.424;2023-09-30T06:19:49;16.10;99.90
12276;DHT22;6200;48.144;11.424;2023-09-30T06:22:16;16.20;99.90
12276;DHT22;6200;48.144;11.424;2023-09-30T06:24:41;16.20;99.90
12276;DHT22;6200;48.144;11.424;2023-09-30T06:27:07;16.20;99.90
12276;DHT22;6200;48.144;11.424;2023-09-30T06:29:33;16.20;99.90
12276;DHT22;6200;48.144;11.424;2023-09-30T06:31:59;16.30;99.90
12276;DHT22;6200;48.144;11.424;2023-09-30T06:34:24;16.30;99.90
12276;DHT22;6200;48.144;11.424;2023-09-30T06:36:50;16.30;99.90
12276;DHT22;6200;48.144;11.424;2023-09-30T06:39:18;16.40;99.90
12276;DHT22;6200;48.144;11.424;2023-09-30T06:41:44;16.40;99.90
12276;DHT22;6200;48.144;11.424;2023-09-30T06:44:11;16.40;99.90
12276;DHT22;6200;48.144;11.424;2023-09-30T06:46:38;16.50;99.90
12276;DHT22;6200;48.144;11.424;2023-09-30T06:49:04;16.60;99.90
12276;DHT22;6200;48.144;11.424;2023-09-30T06:51:30;16.70;99.90
12276;DHT22;6200;48.144;11.424;2023-09-30T06:53:56;16.70;99.90
12276;DHT22;6200;48.144;11.424;2023-09-30T06:56:21;16.90;99.90
12276;DHT22;6200;48.144;11.424;2023-09-30T06:58:47;16.90;99.90
12276;DHT22;6200;48.144;11.424;2023-09-30T07:01:15;16.90;99.90
12276;DHT22;6200;48.144;11.424;2023-09-30T07:03:41;17.00;99.90
12276;DHT22;6200;48.144;11.424;2023-09-30T07:06:07;17.00;99.90
12276;DHT22;6200;48.144;11.424;2023-09-30T07:08:32;16.90;99.90
12276;DHT22;6200;48.144;11.424;2023-09-30T07:10:58;17.00;99.90
12276;DHT22;6200;48.144;11.424;2023-09-30T07:13:23;17.10;99.90
12276;DHT22;6200;48.144;11.424;2023-09-30T07:15:49;17.20;99.90
12276;DHT22;6200;48.144;11.424;2023-09-30T07:18:15;17.30;99.90
12276;DHT22;6200;48.144;11.424;2023-09-30T07:20:41;17.40;99.90
12276;DHT22;6200;48.144;11.424;2023-09-30T07:23:06;17.40;99.90
12276;DHT22;6200;48.144;11.424;2023-09-30T07:25:34;17.60;99.90
12276;DHT22;6200;48.144;11.424;2023-09-30T07:28:00;17.80;99.90
12276;DHT22;6200;48.144;11.424;2023-09-30T07:30:26;18.00;99.90
12276;DHT22;6200;48.144;11.424;2023-09-30T07:32:52;18.20;99.90
12276;DHT22;6200;48.144;11.424;2023-09-30T07:35:17;18.30;99.90
12276;DHT22;6200;48.144;11.424;2023-09-30T07:37:43;18.30;99.90
12276;DHT22;6200;48.144;11.424;2023-09-30T07:40:11;18.40;99.90
12276;DHT22;6200;48.144;11.424;2023-09-30T07:42:36;18.60;99.90
12276;DHT22;6200;48.144;11.424;2023-09-30T07:45:03;18.70;99.90
12276;DHT22;6200;48.144;11.424;2023-09-30T07:47:31;19.00;99.90
12276;DHT22;6200;48.144;11.424;2023-09-30T07:49:59;19.20;99.90
12276;DHT22;6200;48.144;11.424;2023-09-30T07:52:26;19.40;99.90
12276;DHT22;6200;48.144;11.424;2023-09-30T07:54:51;19.50;99.90
12276;DHT22;6200;48.144;11.424;2023-09-30T07:57:17;19.80;99.90
12276;DHT22;6200;48.144;11.424;2023-09-30T07:59:42;20.00;99.90
12276;DHT22;6200;48.144;11.424;2023-09-30T08:02:08;20.20;99.90
12276;DHT22;6200;48.144;11.424;2023-09-30T08:04:34;20.50;99.90
12276;DHT22;6200;48.144;11.424;2023-09-30T08:06:59;20.40;99.90
12276;DHT22;6200;48.144;11.424;2023-09-30T08:09:25;20.20;99.90
12276;DHT22;6200;48.144;11.424;2023-09-30T08:11:53;20.20;99.90
12276;DHT22;6200;48.144;11.424;2023-09-30T08:14:19;20.10;99.90
12276;DHT22;6200;48.144;11.424;2023-09-30T08:16:44;20.00;99.90
12276;DHT22;6200;48.144;11.424;2023-09-30T08:19:10;20.00;99.90
12276;DHT22;6200;48.144;11.424;2023-09-30T08:21:36;19.90;99.90
12276;DHT22;6200;48.144;11.424;2023-09-30T08:24:02;20.00;99.90
12276;DHT22;6200;48.144;11.424;2023-09-30T08:26:28;19.90;99.90
12276;DHT22;6200;48.144;11.424;2023-09-30T08:28:53;20.10;99.90
12276;DHT22;6200;48.144;11.424;2023-09-30T08:31:19;20.40;99.90
12276;DHT22;6200;48.144;11.424;2023-09-30T08:33:45;20.70;99.90
12276;DHT22;6200;48.144;11.424;2023-09-30T08:36:11;21.10;99.90
12276;DHT22;6200;48.144;11.424;2023-09-30T08:38:38;21.40;99.90
12276;DHT22;6200;48.144;11.424;2023-09-30T08:41:04;21.60;99.90
12276;DHT22;6200;48.144;11.424;2023-09-30T08:43:30;21.30;99.90
12276;DHT22;6200;48.144;11.424;2023-09-30T08:45:58;21.20;99.90
12276;DHT22;6200;48.144;11.424;2023-09-30T08:48:26;21.00;99.90
12276;DHT22;6200;48.144;11.424;2023-09-30T08:50:53;20.70;99.90
12276;DHT22;6200;48.144;11.424;2023-09-30T08:53:20;20.60;99.90
12276;DHT22;6200;48.144;11.424;2023-09-30T08:55:46;20.50;99.90
12276;DHT22;6200;48.144;11.424;2023-09-30T08:58:12;21.00;99.90
12276;DHT22;6200;48.144;11.424;2023-09-30T09:00:39;22.00;99.90
12276;DHT22;6200;48.144;11.424;2023-09-30T09:03:07;23.30;99.90
12276;DHT22;6200;48.144;11.424;2023-09-30T09:05:33;23.40;98.10
12276;DHT22;6200;48.144;11.424;2023-09-30T09:07:58;25.10;96.10
12276;DHT22;6200;48.144;11.424;2023-09-30T09:10:24;25.80;94.50
12276;DHT22;6200;48.144;11.424;2023-09-30T09:12:58;26.30;92.40
12276;DHT22;6200;48.144;11.424;2023-09-30T09:15:28;25.70;92.70
12276;DHT22;6200;48.144;11.424;2023-09-30T09:17:56;25.40;92.60
12276;DHT22;6200;48.144;11.424;2023-09-30T09:20:23;24.80;92.70
12276;DHT22;6200;48.144;11.424;2023-09-30T09:22:52;24.50;92.60
12276;DHT22;6200;48.144;11.424;2023-09-30T09:25:19;23.90;93.60
12276;DHT22;6200;48.144;11.424;2023-09-30T09:27:48;23.50;94.70
12276;DHT22;6200;48.144;11.424;2023-09-30T09:30:22;23.00;95.30
12276;DHT22;6200;48.144;11.424;2023-09-30T09:33:04;22.70;95.90
12276;DHT22;6200;48.144;11.424;2023-09-30T09:35:33;22.20;96.80
12276;DHT22;6200;48.144;11.424;2023-09-30T09:38:04;21.90;97.10
12276;DHT22;6200;48.144;11.424;2023-09-30T09:40:32;21.80;97.60
12276;DHT22;6200;48.144;11.424;2023-09-30T09:42:58;21.80;97.50
12276;DHT22;6200;48.144;11.424;2023-09-30T09:45:27;22.00;97.90
12276;DHT22;6200;48.144;11.424;2023-09-30T09:47:53;23.90;95.30
12276;DHT22;6200;48.144;11.424;2023-09-30T09:50:21;25.40;92.40
12276;DHT22;6200;48.144;11.424;2023-09-30T09:52:52;26.40;91.10
12276;DHT22;6200;48.144;11.424;2023-09-30T09:55:19;27.10;87.70
12276;DHT22;6200;48.144;11.424;2023-09-30T09:57:47;27.90;83.70
12276;DHT22;6200;48.144;11.424;2023-09-30T10:00:32;27.80;82.40
12276;DHT22;6200;48.144;11.424;2023-09-30T10:02:59;26.90;82.40
12276;DHT22;6200;48.144;11.424;2023-09-30T10:05:24;27.30;83.10
12276;DHT22;6200;48.144;11.424;2023-09-30T10:08:03;27.10;84.40
12276;DHT22;6200;48.144;11.424;2023-09-30T10:10:30;27.00;84.00
12276;DHT22;6200;48.144;11.424;2023-09-30T10:13:00;26.70;83.50
12276;DHT22;6200;48.144;11.424;2023-09-30T10:18:00;26.20;84.60
12276;DHT22;6200;48.144;11.424;2023-09-30T10:20:29;25.70;85.80
12276;DHT22;6200;48.144;11.424;2023-09-30T10:25:42;25.30;86.40
12276;DHT22;6200;48.144;11.424;2023-09-30T10:28:38;25.10;87.20
12276;DHT22;6200;48.144;11.424;2023-09-30T10:31:18;25.00;87.80
12276;DHT22;6200;48.144;11.424;2023-09-30T10:36:38;26.00;83.80
12276;DHT22;6200;48.144;11.424;2023-09-30T10:39:05;25.90;81.60
12276;DHT22;6200;48.144;11.424;2023-09-30T10:44:36;26.00;83.50
12276;DHT22;6200;48.144;11.424;2023-09-30T10:47:35;25.90;81.30
12276;DHT22;6200;48.144;11.424;2023-09-30T10:50:01;26.10;80.20
12276;DHT22;6200;48.144;11.424;2023-09-30T10:52:27;25.70;84.20
12276;DHT22;6200;48.144;11.424;2023-09-30T10:54:52;25.20;85.00
12276;DHT22;6200;48.144;11.424;2023-09-30T10:57:27;25.50;85.80
12276;DHT22;6200;48.144;11.424;2023-09-30T11:00:12;25.50;84.40
12276;DHT22;6200;48.144;11.424;2023-09-30T11:02:50;25.40;83.20
12276;DHT22;6200;48.144;11.424;2023-09-30T11:05:17;25.60;84.80
12276;DHT22;6200;48.144;11.424;2023-09-30T11:07:44;25.90;83.40
12276;DHT22;6200;48.144;11.424;2023-09-30T11:10:16;26.10;81.60
12276;DHT22;6200;48.144;11.424;2023-09-30T11:12:56;25.90;82.30
12276;DHT22;6200;48.144;11.424;2023-09-30T11:15:23;26.30;82.10
12276;DHT22;6200;48.144;11.424;2023-09-30T11:17:49;26.50;80.00
12276;DHT22;6200;48.144;11.424;2023-09-30T11:20:17;26.70;79.90
12276;DHT22;6200;48.144;11.424;2023-09-30T11:22:44;26.60;79.90
12276;DHT22;6200;48.144;11.424;2023-09-30T11:25:17;26.80;79.70
12276;DHT22;6200;48.144;11.424;2023-09-30T11:27:43;27.30;76.50
12276;DHT22;6200;48.144;11.424;2023-09-30T11:30:10;26.90;77.70
12276;DHT22;6200;48.144;11.424;2023-09-30T11:32:36;27.10;74.80
12276;DHT22;6200;48.144;11.424;2023-09-30T11:35:01;27.30;76.40
12276;DHT22;6200;48.144;11.424;2023-09-30T11:37:33;27.10;75.50
12276;DHT22;6200;48.144;11.424;2023-09-30T11:40:10;27.10;75.30
12276;DHT22;6200;48.144;11.424;2023-09-30T11:42:35;26.80;77.20
12276;DHT22;6200;48.144;11.424;2023-09-30T11:45:01;26.70;76.20
12276;DHT22;6200;48.144;11.424;2023-09-30T11:47:29;26.00;76.50
12276;DHT22;6200;48.144;11.424;2023-09-30T11:49:56;25.80;77.30
12276;DHT22;6200;48.144;11.424;2023-09-30T11:52:26;26.60;73.50
12276;DHT22;6200;48.144;11.424;2023-09-30T11:54:52;26.90;73.40
12276;DHT22;6200;48.144;11.424;2023-09-30T11:57:18;27.60;72.10
12276;DHT22;6200;48.144;11.424;2023-09-30T11:59:45;27.90;69.70
12276;DHT22;6200;48.144;11.424;2023-09-30T12:02:12;27.70;69.90
12276;DHT22;6200;48.144;11.424;2023-09-30T12:04:38;27.40;71.00
12276;DHT22;6200;48.144;11.424;2023-09-30T12:07:04;27.40;71.30
12276;DHT22;6200;48.144;11.424;2023-09-30T12:09:29;27.20;69.60
12276;DHT22;6200;48.144;11.424;2023-09-30T12:11:57;27.10;71.70
12276;DHT22;6200;48.144;11.424;2023-09-30T12:14:24;27.00;69.60
12276;DHT22;6200;48.144;11.424;2023-09-30T12:16:49;27.00;70.50
12276;DHT22;6200;48.144;11.424;2023-09-30T12:19:16;27.30;70.50
12276;DHT22;6200;48.144;11.424;2023-09-30T12:21:43;27.00;73.60
12276;DHT22;6200;48.144;11.424;2023-09-30T12:24:12;26.50;74.30
12276;DHT22;6200;48.144;11.424;2023-09-30T12:26:42;26.50;72.20
12276;DHT22;6200;48.144;11.424;2023-09-30T12:29:07;26.60;73.70
12276;DHT22;6200;48.144;11.424;2023-09-30T12:31:35;26.60;75.20
12276;DHT22;6200;48.144;11.424;2023-09-30T12:34:00;26.20;75.00
12276;DHT22;6200;48.144;11.424;2023-09-30T12:36:26;26.40;71.60
12276;DHT22;6200;48.144;11.424;2023-09-30T12:38:51;26.60;71.30
12276;DHT22;6200;48.144;11.424;2023-09-30T12:41:17;26.70;73.60
12276;DHT22;6200;48.144;11.424;2023-09-30T12:43:44;26.80;71.50
12276;DHT22;6200;48.144;11.424;2023-09-30T12:46:10;27.00;69.00
12276;DHT22;6200;48.144;11.424;2023-09-30T12:48:39;26.80;71.80
12276;DHT22;6200;48.144;11.424;2023-09-30T12:51:07;26.70;71.80
12276;DHT22;6200;48.144;11.424;2023-09-30T12:53:34;26.40;70.50
12276;DHT22;6200;48.144;11.424;2023-09-30T12:56:00;25.80;74.80
12276;DHT22;6200;48.144;11.424;2023-09-30T12:58:26;25.60;73.50
12276;DHT22;6200;48.144;11.424;2023-09-30T13:00:54;25.20;73.30
12276;DHT22;6200;48.144;11.424;2023-09-30T13:03:20;24.70;75.60
12276;DHT22;6200;48.144;11.424;2023-09-30T13:05:45;24.10;78.30
12276;DHT22;6200;48.144;11.424;2023-09-30T13:08:11;24.20;78.90
12276;DHT22;6200;48.144;11.424;2023-09-30T13:10:37;24.10;77.70
12276;DHT22;6200;48.144;11.424;2023-09-30T13:13:04;24.10;78.30
12276;DHT22;6200;48.144;11.424;2023-09-30T13:15:29;23.90;79.60
12276;DHT22;6200;48.144;11.424;2023-09-30T13:17:55;23.90;78.90
12276;DHT22;6200;48.144;11.424;2023-09-30T13:20:20;23.70;78.30
12276;DHT22;6200;48.144;11.424;2023-09-30T13:22:46;23.60;80.80
12276;DHT22;6200;48.144;11.424;2023-09-30T13:25:11;23.50;79.70
12276;DHT22;6200;48.144;11.424;2023-09-30T13:27:41;23.20;80.80
12276;DHT22;6200;48.144;11.424;2023-09-30T13:30:07;22.90;82.50
12276;DHT22;6200;48.144;11.424;2023-09-30T13:32:34;23.00;83.50
12276;DHT22;6200;48.144;11.424;2023-09-30T13:35:04;22.90;83.40
12276;DHT22;6200;48.144;11.424;2023-09-30T13:37:31;22.80;84.30
12276;DHT22;6200;48.144;11.424;2023-09-30T13:39:59;22.70;84.50
12276;DHT22;6200;48.144;11.424;2023-09-30T13:42:24;22.70;84.50
12276;DHT22;6200;48.144;11.424;2023-09-30T13:44:50;22.80;83.90
12276;DHT22;6200;48.144;11.424;2023-09-30T13:47:16;22.80;83.90
12276;DHT22;6200;48.144;11.424;2023-09-30T13:49:42;22.40;84.40
12276;DHT22;6200;48.144;11.424;2023-09-30T13:52:07;22.20;84.70
12276;DHT22;6200;48.144;11.424;2023-09-30T13:54:33;22.40;85.20
12276;DHT22;6200;48.144;11.424;2023-09-30T13:56:58;22.50;86.50
12276;DHT22;6200;48.144;11.424;2023-09-30T13:59:24;22.70;86.00
12276;DHT22;6200;48.144;11.424;2023-09-30T14:01:50;22.90;85.50
12276;DHT22;6200;48.144;11.424;2023-09-30T14:04:15;23.00;84.80
12276;DHT22;6200;48.144;11.424;2023-09-30T14:06:42;22.80;84.70
12276;DHT22;6200;48.144;11.424;2023-09-30T14:09:07;22.70;85.30
12276;DHT22;6200;48.144;11.424;2023-09-30T14:11:42;22.70;85.20
12276;DHT22;6200;48.144;11.424;2023-09-30T14:14:09;22.70;86.20
12276;DHT22;6200;48.144;11.424;2023-09-30T14:16:35;22.80;85.70
12276;DHT22;6200;48.144;11.424;2023-09-30T14:19:01;22.70;85.00
12276;DHT22;6200;48.144;11.424;2023-09-30T14:21:27;22.70;84.70
12276;DHT22;6200;48.144;11.424;2023-09-30T14:23:54;22.70;84.10
12276;DHT22;6200;48.144;11.424;2023-09-30T14:26:19;22.70;83.60
12276;DHT22;6200;48.144;11.424;2023-09-30T14:28:45;22.60;86.40
12276;DHT22;6200;48.144;11.424;2023-09-30T14:31:10;22.50;85.70
12276;DHT22;6200;48.144;11.424;2023-09-30T14:33:36;22.40;87.30
12276;DHT22;6200;48.144;11.424;2023-09-30T14:36:03;22.40;86.80
12276;DHT22;6200;48.144;11.424;2023-09-30T14:38:31;22.50;86.20
12276;DHT22;6200;48.144;11.424;2023-09-30T14:40:57;22.40;86.00
12276;DHT22;6200;48.144;11.424;2023-09-30T14:43:22;22.40;86.40
12276;DHT22;6200;48.144;11.424;2023-09-30T14:45:48;22.30;84.70
12276;DHT22;6200;48.144;11.424;2023-09-30T14:48:13;22.20;87.50
12276;DHT22;6200;48.144;11.424;2023-09-30T14:50:48;22.10;87.80
12276;DHT22;6200;48.144;11.424;2023-09-30T14:53:14;22.00;86.70
12276;DHT22;6200;48.144;11.424;2023-09-30T14:55:41;21.80;88.20
12276;DHT22;6200;48.144;11.424;2023-09-30T14:58:06;21.80;89.90
12276;DHT22;6200;48.144;11.424;2023-09-30T15:00:32;21.50;90.30
12276;DHT22;6200;48.144;11.424;2023-09-30T15:02:57;21.40;89.10
12276;DHT22;6200;48.144;11.424;2023-09-30T15:05:23;21.40;90.20
12276;DHT22;6200;48.144;11.424;2023-09-30T15:07:50;21.50;90.60
12276;DHT22;6200;48.144;11.424;2023-09-30T15:10:16;21.50;89.70
12276;DHT22;6200;48.144;11.424;2023-09-30T15:12:41;21.50;90.10
12276;DHT22;6200;48.144;11.424;2023-09-30T15:15:07;21.40;90.30
12276;DHT22;6200;48.144;11.424;2023-09-30T15:17:34;21.50;90.40
12276;DHT22;6200;48.144;11.424;2023-09-30T15:19:59;21.40;89.00
12276;DHT22;6200;48.144;11.424;2023-09-30T15:22:26;21.40;91.10
12276;DHT22;6200;48.144;11.424;2023-09-30T15:24:51;21.40;91.00
12276;DHT22;6200;48.144;11.424;2023-09-30T15:27:17;21.30;90.90
12276;DHT22;6200;48.144;11.424;2023-09-30T15:29:44;21.30;90.40
12276;DHT22;6200;48.144;11.424;2023-09-30T15:32:09;21.30;91.00
12276;DHT22;6200;48.144;11.424;2023-09-30T15:34:38;21.20;91.10
12276;DHT22;6200;48.144;11.424;2023-09-30T15:37:05;21.00;91.00
12276;DHT22;6200;48.144;11.424;2023-09-30T15:39:39;20.90;91.00